sensor_id;sensor_type;location;lat;lon;timestamp;P1;durP1;ratioP1;P2;durP2;ratioP2
36205;SDS011;22242;48.796;9.930;2023-04-23T00:02:02;3.58;;;1.70;;
36205;SDS011;22242;48.796;9.930;2023-04-23T00:04:32;5.20;;;1.70;;
36205;SDS011;22242;48.796;9.930;2023-04-23T00:07:02;2.67;;;1.50;;
36205;SDS011;22242;48.796;9.930;2023-04-23T00:09:31;4.95;;;1.98;;
36205;SDS011;22242;48.796;9.930;2023-04-23T00:11:59;4.07;;;1.88;;
36205;SDS011;22242;48.796;9.930;2023-04-23T00:14:26;2.80;;;1.60;;
36205;SDS011;22242;48.796;9.930;2023-04-23T00:16:55;3.70;;;1.77;;
36205;SDS011;22242;48.796;9.930;2023-04-23T00:19:23;2.63;;;1.50;;
36205;SDS011;22242;48.796;9.930;2023-04-23T00:21:50;4.00;;;1.95;;
36205;SDS011;22242;48.796;9.930;2023-04-23T00:24:17;2.67;;;1.80;;
36205;SDS011;22242;48.796;9.930;2023-04-23T00:26:44;3.97;;;2.00;;
36205;SDS011;22242;48.796;9.930;2023-04-23T00:29:11;4.38;;;1.90;;
36205;SDS011;22242;48.796;9.930;2023-04-23T00:31:38;3.05;;;1.90;;
36205;SDS011;22242;48.796;9.930;2023-04-23T00:34:07;5.38;;;2.13;;
36205;SDS011;22242;48.796;9.930;2023-04-23T00:36:35;6.43;;;1.98;;
36205;SDS011;22242;48.796;9.930;2023-04-23T00:39:01;6.82;;;1.92;;
36205;SDS011;22242;48.796;9.930;2023-04-23T00:41:28;4.07;;;2.17;;
36205;SDS011;22242;48.796;9.930;2023-04-23T00:43:55;3.58;;;2.10;;
36205;SDS011;22242;48.796;9.930;2023-04-23T00:46:24;3.63;;;2.00;;
36205;SDS011;22242;48.796;9.930;2023-04-23T00:48:51;4.70;;;1.67;;
36205;SDS011;22242;48.796;9.930;2023-04-23T00:51:21;4.78;;;1.90;;
36205;SDS011;22242;48.796;9.930;2023-04-23T00:53:48;5.88;;;1.90;;
36205;SDS011;22242;48.796;9.930;2023-04-23T00:56:16;2.80;;;2.00;;
36205;SDS011;22242;48.796;9.930;2023-04-23T00:58:43;5.32;;;1.67;;
36205;SDS011;22242;48.796;9.930;2023-04-23T01:01:11;4.28;;;2.08;;
36205;SDS011;22242;48.796;9.930;2023-04-23T01:03:39;6.50;;;2.00;;
36205;SDS011;22242;48.796;9.930;2023-04-23T01:06:08;4.32;;;2.00;;
36205;SDS011;22242;48.796;9.930;2023-04-23T01:08:36;2.97;;;2.10;;
36205;SDS011;22242;48.796;9.930;2023-04-23T01:11:04;6.22;;;2.10;;
36205;SDS011;22242;48.796;9.930;2023-04-23T01:13:31;4.35;;;2.25;;
36205;SDS011;22242;48.796;9.930;2023-04-23T01:16:00;5.07;;;2.47;;
36205;SDS011;22242;48.796;9.930;2023-04-23T01:18:27;5.45;;;2.13;;
36205;SDS011;22242;48.796;9.930;2023-04-23T01:20:54;4.68;;;2.30;;
36205;SDS011;22242;48.796;9.930;2023-04-23T01:23:23;5.30;;;1.90;;
36205;SDS011;22242;48.796;9.930;2023-04-23T01:25:51;7.57;;;2.30;;
36205;SDS011;22242;48.796;9.930;2023-04-23T01:28:19;10.05;;;2.42;;
36205;SDS011;22242;48.796;9.930;2023-04-23T01:30:47;9.13;;;2.17;;
36205;SDS011;22242;48.796;9.930;2023-04-23T01:33:14;3.53;;;2.10;;
36205;SDS011;22242;48.796;9.930;2023-04-23T01:35:42;4.53;;;2.22;;
36205;SDS011;22242;48.796;9.930;2023-04-23T01:38:10;6.00;;;2.25;;
36205;SDS011;22242;48.796;9.930;2023-04-23T01:40:41;6.55;;;2.30;;
36205;SDS011;22242;48.796;9.930;2023-04-23T01:43:09;5.60;;;2.20;;
36205;SDS011;22242;48.796;9.930;2023-04-23T01:45:36;9.85;;;2.17;;
36205;SDS011;22242;48.796;9.930;2023-04-23T01:48:03;5.40;;;2.58;;
36205;SDS011;22242;48.796;9.930;2023-04-23T01:50:30;11.27;;;2.22;;
36205;SDS011;22242;48.796;9.930;2023-04-23T01:52:57;6.72;;;2.50;;
36205;SDS011;22242;48.796;9.930;2023-04-23T01:55:24;3.05;;;2.58;;
36205;SDS011;22242;48.796;9.930;2023-04-23T01:57:53;3.30;;;2.00;;
36205;SDS011;22242;48.796;9.930;2023-04-23T02:00:21;5.95;;;2.60;;
36205;SDS011;22242;48.796;9.930;2023-04-23T02:02:48;5.53;;;2.20;;
36205;SDS011;22242;48.796;9.930;2023-04-23T02:05:17;4.90;;;2.40;;
36205;SDS011;22242;48.796;9.930;2023-04-23T02:07:45;5.55;;;2.20;;
36205;SDS011;22242;48.796;9.930;2023-04-23T02:10:14;4.88;;;2.10;;
36205;SDS011;22242;48.796;9.930;2023-04-23T02:16:34;4.47;;;2.40;;
36205;SDS011;22242;48.796;9.930;2023-04-23T02:19:01;14.15;;;2.50;;
36205;SDS011;22242;48.796;9.930;2023-04-23T02:21:28;4.40;;;2.55;;
36205;SDS011;22242;48.796;9.930;2023-04-23T02:23:55;5.65;;;2.40;;
36205;SDS011;22242;48.796;9.930;2023-04-23T02:26:22;5.18;;;2.17;;
36205;SDS011;22242;48.796;9.930;2023-04-23T02:28:49;4.97;;;2.47;;
36205;SDS011;22242;48.796;9.930;2023-04-23T02:31:16;5.35;;;2.35;;
36205;SDS011;22242;48.796;9.930;2023-04-23T02:33:46;2.80;;;2.53;;
36205;SDS011;22242;48.796;9.930;2023-04-23T02:36:13;5.25;;;2.45;;
36205;SDS011;22242;48.796;9.930;2023-04-23T02:38:40;4.55;;;2.60;;
36205;SDS011;22242;48.796;9.930;2023-04-23T02:41:09;5.30;;;2.67;;
36205;SDS011;22242;48.796;9.930;2023-04-23T02:43:36;4.28;;;2.88;;
36205;SDS011;22242;48.796;9.930;2023-04-23T02:46:03;4.32;;;2.97;;
36205;SDS011;22242;48.796;9.930;2023-04-23T02:48:35;9.45;;;2.85;;
36205;SDS011;22242;48.796;9.930;2023-04-23T02:51:05;4.50;;;2.53;;
36205;SDS011;22242;48.796;9.930;2023-04-23T02:53:33;6.25;;;3.00;;
36205;SDS011;22242;48.796;9.930;2023-04-23T02:56:00;5.65;;;3.40;;
36205;SDS011;22242;48.796;9.930;2023-04-23T02:58:29;7.25;;;3.13;;
36205;SDS011;22242;48.796;9.930;2023-04-23T03:00:59;4.85;;;2.40;;
36205;SDS011;22242;48.796;9.930;2023-04-23T03:03:27;4.45;;;2.88;;
36205;SDS011;22242;48.796;9.930;2023-04-23T03:05:57;6.93;;;2.53;;
36205;SDS011;22242;48.796;9.930;2023-04-23T03:08:26;6.07;;;2.80;;
36205;SDS011;22242;48.796;9.930;2023-04-23T03:10:53;6.78;;;3.08;;
36205;SDS011;22242;48.796;9.930;2023-04-23T03:13:20;4.60;;;2.80;;
36205;SDS011;22242;48.796;9.930;2023-04-23T03:15:47;5.28;;;2.80;;
36205;SDS011;22242;48.796;9.930;2023-04-23T03:18:14;5.43;;;2.80;;
36205;SDS011;22242;48.796;9.930;2023-04-23T03:20:43;2.95;;;2.40;;
36205;SDS011;22242;48.796;9.930;2023-04-23T03:23:10;6.20;;;3.20;;
36205;SDS011;22242;48.796;9.930;2023-04-23T03:25:38;5.05;;;2.65;;
36205;SDS011;22242;48.796;9.930;2023-04-23T03:28:05;5.82;;;2.90;;
36205;SDS011;22242;48.796;9.930;2023-04-23T03:30:32;3.67;;;2.70;;
36205;SDS011;22242;48.796;9.930;2023-04-23T03:32:59;3.95;;;2.60;;
36205;SDS011;22242;48.796;9.930;2023-04-23T03:35:27;5.13;;;2.50;;
36205;SDS011;22242;48.796;9.930;2023-04-23T03:37:57;4.32;;;2.45;;
36205;SDS011;22242;48.796;9.930;2023-04-23T03:40:24;5.63;;;2.72;;
36205;SDS011;22242;48.796;9.930;2023-04-23T03:42:56;3.40;;;2.40;;
36205;SDS011;22242;48.796;9.930;2023-04-23T03:45:40;4.45;;;2.42;;
36205;SDS011;22242;48.796;9.930;2023-04-23T03:48:08;2.40;;;2.00;;
36205;SDS011;22242;48.796;9.930;2023-04-23T03:50:36;2.95;;;2.00;;
36205;SDS011;22242;48.796;9.930;2023-04-23T03:53:24;3.97;;;2.10;;
36205;SDS011;22242;48.796;9.930;2023-04-23T03:56:14;2.17;;;1.98;;
36205;SDS011;22242;48.796;9.930;2023-04-23T03:58:50;4.30;;;1.45;;
36205;SDS011;22242;48.796;9.930;2023-04-23T04:01:17;1.85;;;1.52;;
36205;SDS011;22242;48.796;9.930;2023-04-23T04:03:44;2.28;;;1.70;;
36205;SDS011;22242;48.796;9.930;2023-04-23T04:06:11;3.40;;;1.58;;
36205;SDS011;22242;48.796;9.930;2023-04-23T04:08:38;2.53;;;1.60;;
36205;SDS011;22242;48.796;9.930;2023-04-23T04:11:05;3.08;;;1.80;;
36205;SDS011;22242;48.796;9.930;2023-04-23T04:13:32;1.77;;;1.55;;
36205;SDS011;22242;48.796;9.930;2023-04-23T04:16:03;5.38;;;2.08;;
36205;SDS011;22242;48.796;9.930;2023-04-23T04:18:30;1.90;;;1.58;;
36205;SDS011;22242;48.796;9.930;2023-04-23T04:20:57;1.50;;;1.40;;
36205;SDS011;22242;48.796;9.930;2023-04-23T04:23:24;2.30;;;1.42;;
36205;SDS011;22242;48.796;9.930;2023-04-23T04:25:51;3.67;;;1.75;;
36205;SDS011;22242;48.796;9.930;2023-04-23T04:28:20;6.40;;;2.60;;
36205;SDS011;22242;48.796;9.930;2023-04-23T04:30:49;3.75;;;1.50;;
36205;SDS011;22242;48.796;9.930;2023-04-23T04:33:17;2.22;;;1.45;;
36205;SDS011;22242;48.796;9.930;2023-04-23T04:35:44;1.25;;;1.15;;
36205;SDS011;22242;48.796;9.930;2023-04-23T04:38:13;1.80;;;1.23;;
36205;SDS011;22242;48.796;9.930;2023-04-23T04:40:40;4.47;;;1.42;;
36205;SDS011;22242;48.796;9.930;2023-04-23T04:43:07;6.38;;;1.73;;
36205;SDS011;22242;48.796;9.930;2023-04-23T04:45:35;1.55;;;1.30;;
36205;SDS011;22242;48.796;9.930;2023-04-23T04:48:02;1.15;;;1.13;;
36205;SDS011;22242;48.796;9.930;2023-04-23T04:50:31;2.55;;;1.05;;
36205;SDS011;22242;48.796;9.930;2023-04-23T04:52:57;2.00;;;1.20;;
36205;SDS011;22242;48.796;9.930;2023-04-23T04:55:25;1.35;;;0.82;;
36205;SDS011;22242;48.796;9.930;2023-04-23T04:57:52;1.98;;;0.90;;
36205;SDS011;22242;48.796;9.930;2023-04-23T05:00:20;1.05;;;0.70;;
36205;SDS011;22242;48.796;9.930;2023-04-23T05:02:48;0.80;;;0.80;;
36205;SDS011;22242;48.796;9.930;2023-04-23T05:05:16;1.70;;;1.00;;
36205;SDS011;22242;48.796;9.930;2023-04-23T05:07:45;0.55;;;0.55;;
36205;SDS011;22242;48.796;9.930;2023-04-23T05:10:13;1.13;;;0.77;;
36205;SDS011;22242;48.796;9.930;2023-04-23T05:12:40;0.80;;;0.80;;
36205;SDS011;22242;48.796;9.930;2023-04-23T05:15:08;1.42;;;1.08;;
36205;SDS011;22242;48.796;9.930;2023-04-23T05:17:37;0.85;;;0.82;;
36205;SDS011;22242;48.796;9.930;2023-04-23T05:20:05;0.90;;;0.80;;
36205;SDS011;22242;48.796;9.930;2023-04-23T05:22:35;0.88;;;0.82;;
36205;SDS011;22242;48.796;9.930;2023-04-23T05:25:04;0.73;;;0.70;;
36205;SDS011;22242;48.796;9.930;2023-04-23T05:27:32;1.65;;;0.85;;
36205;SDS011;22242;48.796;9.930;2023-04-23T05:29:59;1.13;;;0.70;;
36205;SDS011;22242;48.796;9.930;2023-04-23T05:32:27;1.23;;;0.80;;
36205;SDS011;22242;48.796;9.930;2023-04-23T05:34:54;0.70;;;0.70;;
36205;SDS011;22242;48.796;9.930;2023-04-23T05:37:21;1.02;;;0.88;;
36205;SDS011;22242;48.796;9.930;2023-04-23T05:39:48;1.13;;;1.00;;
36205;SDS011;22242;48.796;9.930;2023-04-23T05:42:17;2.05;;;0.98;;
36205;SDS011;22242;48.796;9.930;2023-04-23T05:44:44;2.63;;;1.00;;
36205;SDS011;22242;48.796;9.930;2023-04-23T05:47:12;2.55;;;1.35;;
36205;SDS011;22242;48.796;9.930;2023-04-23T05:49:39;2.83;;;1.30;;
36205;SDS011;22242;48.796;9.930;2023-04-23T05:52:06;5.15;;;2.25;;
36205;SDS011;22242;48.796;9.930;2023-04-23T05:54:34;6.75;;;2.50;;
36205;SDS011;22242;48.796;9.930;2023-04-23T05:57:00;5.55;;;1.65;;
36205;SDS011;22242;48.796;9.930;2023-04-23T05:59:30;4.13;;;1.30;;
36205;SDS011;22242;48.796;9.930;2023-04-23T06:01:57;4.95;;;1.60;;
36205;SDS011;22242;48.796;9.930;2023-04-23T06:04:25;7.53;;;1.98;;
36205;SDS011;22242;48.796;9.930;2023-04-23T06:06:52;3.33;;;1.45;;
36205;SDS011;22242;48.796;9.930;2023-04-23T06:09:19;4.88;;;1.40;;
36205;SDS011;22242;48.796;9.930;2023-04-23T06:11:46;2.53;;;1.30;;
36205;SDS011;22242;48.796;9.930;2023-04-23T06:14:15;1.25;;;1.15;;
36205;SDS011;22242;48.796;9.930;2023-04-23T06:16:43;1.63;;;1.42;;
36205;SDS011;22242;48.796;9.930;2023-04-23T06:19:10;1.75;;;1.20;;
36205;SDS011;22242;48.796;9.930;2023-04-23T06:21:37;2.95;;;1.10;;
36205;SDS011;22242;48.796;9.930;2023-04-23T06:24:05;1.05;;;0.98;;
36205;SDS011;22242;48.796;9.930;2023-04-23T06:26:32;2.05;;;1.30;;
36205;SDS011;22242;48.796;9.930;2023-04-23T06:29:08;1.30;;;1.17;;
36205;SDS011;22242;48.796;9.930;2023-04-23T06:31:55;1.50;;;1.10;;
36205;SDS011;22242;48.796;9.930;2023-04-23T06:34:23;1.70;;;1.60;;
36205;SDS011;22242;48.796;9.930;2023-04-23T06:36:50;1.55;;;1.38;;
36205;SDS011;22242;48.796;9.930;2023-04-23T06:39:17;1.17;;;1.10;;
36205;SDS011;22242;48.796;9.930;2023-04-23T06:41:44;3.17;;;1.50;;
36205;SDS011;22242;48.796;9.930;2023-04-23T06:44:19;3.55;;;1.42;;
36205;SDS011;22242;48.796;9.930;2023-04-23T06:46:52;3.37;;;1.70;;
36205;SDS011;22242;48.796;9.930;2023-04-23T06:49:21;2.90;;;1.80;;
36205;SDS011;22242;48.796;9.930;2023-04-23T06:51:48;2.15;;;1.90;;
36205;SDS011;22242;48.796;9.930;2023-04-23T06:54:15;3.45;;;1.70;;
36205;SDS011;22242;48.796;9.930;2023-04-23T06:56:41;1.88;;;1.50;;
36205;SDS011;22242;48.796;9.930;2023-04-23T06:59:09;2.35;;;1.73;;
36205;SDS011;22242;48.796;9.930;2023-04-23T07:01:44;1.50;;;1.30;;
36205;SDS011;22242;48.796;9.930;2023-04-23T07:04:12;3.08;;;1.20;;
36205;SDS011;22242;48.796;9.930;2023-04-23T07:06:39;1.30;;;1.13;;
36205;SDS011;22242;48.796;9.930;2023-04-23T07:09:07;3.75;;;1.60;;
36205;SDS011;22242;48.796;9.930;2023-04-23T07:11:34;1.10;;;0.98;;
36205;SDS011;22242;48.796;9.930;2023-04-23T07:14:01;1.77;;;1.00;;
36205;SDS011;22242;48.796;9.930;2023-04-23T07:16:28;1.50;;;1.20;;
36205;SDS011;22242;48.796;9.930;2023-04-23T07:18:58;1.50;;;1.00;;
36205;SDS011;22242;48.796;9.930;2023-04-23T07:21:28;7.78;;;3.55;;
36205;SDS011;22242;48.796;9.930;2023-04-23T07:23:55;6.90;;;2.88;;
36205;SDS011;22242;48.796;9.930;2023-04-23T07:26:24;2.10;;;1.15;;
36205;SDS011;22242;48.796;9.930;2023-04-23T07:28:51;2.13;;;1.02;;
36205;SDS011;22242;48.796;9.930;2023-04-23T07:31:18;0.90;;;0.80;;
36205;SDS011;22242;48.796;9.930;2023-04-23T07:33:46;0.90;;;0.70;;
36205;SDS011;22242;48.796;9.930;2023-04-23T07:36:13;1.20;;;0.90;;
36205;SDS011;22242;48.796;9.930;2023-04-23T07:38:41;2.10;;;0.70;;
36205;SDS011;22242;48.796;9.930;2023-04-23T07:41:09;0.70;;;0.70;;
36205;SDS011;22242;48.796;9.930;2023-04-23T07:43:36;0.90;;;0.60;;
36205;SDS011;22242;48.796;9.930;2023-04-23T07:46:05;0.70;;;0.60;;
36205;SDS011;22242;48.796;9.930;2023-04-23T07:48:32;0.57;;;0.57;;
36205;SDS011;22242;48.796;9.930;2023-04-23T07:51:00;0.73;;;0.60;;
36205;SDS011;22242;48.796;9.930;2023-04-23T07:53:27;1.08;;;0.60;;
36205;SDS011;22242;48.796;9.930;2023-04-23T07:55:56;0.50;;;0.50;;
36205;SDS011;22242;48.796;9.930;2023-04-23T07:58:23;0.30;;;0.30;;
36205;SDS011;22242;48.796;9.930;2023-04-23T08:00:50;1.25;;;0.40;;
36205;SDS011;22242;48.796;9.930;2023-04-23T08:03:18;1.58;;;0.40;;
36205;SDS011;22242;48.796;9.930;2023-04-23T08:05:45;0.43;;;0.38;;
36205;SDS011;22242;48.796;9.930;2023-04-23T08:08:12;0.75;;;0.30;;
36205;SDS011;22242;48.796;9.930;2023-04-23T08:10:39;0.32;;;0.32;;
36205;SDS011;22242;48.796;9.930;2023-04-23T08:13:08;0.30;;;0.30;;
36205;SDS011;22242;48.796;9.930;2023-04-23T08:15:35;0.30;;;0.30;;
36205;SDS011;22242;48.796;9.930;2023-04-23T08:18:02;1.02;;;0.32;;
36205;SDS011;22242;48.796;9.930;2023-04-23T08:20:30;1.23;;;0.50;;
36205;SDS011;22242;48.796;9.930;2023-04-23T08:22:57;0.30;;;0.30;;
36205;SDS011;22242;48.796;9.930;2023-04-23T08:25:25;0.43;;;0.32;;
36205;SDS011;22242;48.796;9.930;2023-04-23T08:27:52;1.20;;;0.30;;
36205;SDS011;22242;48.796;9.930;2023-04-23T08:30:21;1.27;;;0.40;;
36205;SDS011;22242;48.796;9.930;2023-04-23T08:32:48;0.32;;;0.30;;
36205;SDS011;22242;48.796;9.930;2023-04-23T08:35:18;0.43;;;0.32;;
36205;SDS011;22242;48.796;9.930;2023-04-23T08:37:45;0.30;;;0.30;;
36205;SDS011;22242;48.796;9.930;2023-04-23T08:40:12;1.02;;;0.30;;
36205;SDS011;22242;48.796;9.930;2023-04-23T08:42:40;0.38;;;0.30;;
36205;SDS011;22242;48.796;9.930;2023-04-23T08:45:10;0.32;;;0.30;;
36205;SDS011;22242;48.796;9.930;2023-04-23T08:47:40;0.85;;;0.60;;
36205;SDS011;22242;48.796;9.930;2023-04-23T08:50:09;0.30;;;0.30;;
36205;SDS011;22242;48.796;9.930;2023-04-23T08:52:38;0.70;;;0.50;;
36205;SDS011;22242;48.796;9.930;2023-04-23T08:55:07;0.35;;;0.28;;
36205;SDS011;22242;48.796;9.930;2023-04-23T08:57:39;0.50;;;0.50;;
36205;SDS011;22242;48.796;9.930;2023-04-23T09:00:07;1.13;;;0.57;;
36205;SDS011;22242;48.796;9.930;2023-04-23T09:02:36;0.95;;;0.47;;
36205;SDS011;22242;48.796;9.930;2023-04-23T09:05:06;0.52;;;0.40;;
36205;SDS011;22242;48.796;9.930;2023-04-23T09:07:34;1.52;;;0.50;;
36205;SDS011;22242;48.796;9.930;2023-04-23T09:10:02;0.98;;;0.40;;
36205;SDS011;22242;48.796;9.930;2023-04-23T09:12:30;1.52;;;0.60;;
36205;SDS011;22242;48.796;9.930;2023-04-23T09:14:58;0.75;;;0.60;;
36205;SDS011;22242;48.796;9.930;2023-04-23T09:17:27;1.33;;;0.60;;
36205;SDS011;22242;48.796;9.930;2023-04-23T09:19:55;2.55;;;0.80;;
36205;SDS011;22242;48.796;9.930;2023-04-23T09:22:37;0.80;;;0.63;;
36205;SDS011;22242;48.796;9.930;2023-04-23T09:25:09;0.90;;;0.60;;
36205;SDS011;22242;48.796;9.930;2023-04-23T09:27:37;1.38;;;0.70;;
36205;SDS011;22242;48.796;9.930;2023-04-23T09:30:05;0.90;;;0.50;;
36205;SDS011;22242;48.796;9.930;2023-04-23T09:32:35;1.67;;;0.70;;
36205;SDS011;22242;48.796;9.930;2023-04-23T09:35:04;0.40;;;0.40;;
36205;SDS011;22242;48.796;9.930;2023-04-23T09:37:33;0.73;;;0.40;;
36205;SDS011;22242;48.796;9.930;2023-04-23T09:40:02;0.68;;;0.50;;
36205;SDS011;22242;48.796;9.930;2023-04-23T09:42:33;0.50;;;0.50;;
36205;SDS011;22242;48.796;9.930;2023-04-23T09:45:02;2.03;;;0.63;;
36205;SDS011;22242;48.796;9.930;2023-04-23T09:47:31;1.15;;;0.50;;
36205;SDS011;22242;48.796;9.930;2023-04-23T09:50:00;0.57;;;0.57;;
36205;SDS011;22242;48.796;9.930;2023-04-23T09:52:29;2.53;;;0.47;;
36205;SDS011;22242;48.796;9.930;2023-04-23T09:55:00;0.57;;;0.57;;
36205;SDS011;22242;48.796;9.930;2023-04-23T09:57:29;0.88;;;0.50;;
36205;SDS011;22242;48.796;9.930;2023-04-23T09:59:57;1.95;;;0.60;;
36205;SDS011;22242;48.796;9.930;2023-04-23T10:02:26;0.55;;;0.50;;
36205;SDS011;22242;48.796;9.930;2023-04-23T10:04:54;0.65;;;0.52;;
36205;SDS011;22242;48.796;9.930;2023-04-23T10:07:21;0.50;;;0.50;;
36205;SDS011;22242;48.796;9.930;2023-04-23T10:09:49;1.58;;;0.60;;
36205;SDS011;22242;48.796;9.930;2023-04-23T10:12:17;1.83;;;0.52;;
36205;SDS011;22242;48.796;9.930;2023-04-23T10:14:46;0.73;;;0.45;;
36205;SDS011;22242;48.796;9.930;2023-04-23T10:17:18;2.42;;;0.50;;
36205;SDS011;22242;48.796;9.930;2023-04-23T10:19:45;0.68;;;0.50;;
36205;SDS011;22242;48.796;9.930;2023-04-23T10:22:14;0.30;;;0.30;;
36205;SDS011;22242;48.796;9.930;2023-04-23T10:24:44;0.50;;;0.40;;
36205;SDS011;22242;48.796;9.930;2023-04-23T10:27:14;0.90;;;0.40;;
36205;SDS011;22242;48.796;9.930;2023-04-23T10:29:43;1.90;;;0.65;;
36205;SDS011;22242;48.796;9.930;2023-04-23T10:32:10;0.50;;;0.50;;
36205;SDS011;22242;48.796;9.930;2023-04-23T10:34:38;0.95;;;0.70;;
36205;SDS011;22242;48.796;9.930;2023-04-23T10:37:06;0.82;;;0.32;;
36205;SDS011;22242;48.796;9.930;2023-04-23T10:39:33;0.45;;;0.25;;
36205;SDS011;22242;48.796;9.930;2023-04-23T10:42:01;1.25;;;0.70;;
36205;SDS011;22242;48.796;9.930;2023-04-23T10:44:31;0.95;;;0.47;;
36205;SDS011;22242;48.796;9.930;2023-04-23T10:47:01;1.70;;;0.50;;
36205;SDS011;22242;48.796;9.930;2023-04-23T10:53:19;0.65;;;0.50;;
36205;SDS011;22242;48.796;9.930;2023-04-23T10:55:46;1.58;;;0.47;;
36205;SDS011;22242;48.796;9.930;2023-04-23T10:58:13;0.50;;;0.50;;
36205;SDS011;22242;48.796;9.930;2023-04-23T11:00:43;0.82;;;0.60;;
36205;SDS011;22242;48.796;9.930;2023-04-23T11:03:36;1.13;;;0.60;;
36205;SDS011;22242;48.796;9.930;2023-04-23T11:06:06;0.50;;;0.50;;
36205;SDS011;22242;48.796;9.930;2023-04-23T11:08:34;0.43;;;0.43;;
36205;SDS011;22242;48.796;9.930;2023-04-23T11:11:05;0.93;;;0.60;;
36205;SDS011;22242;48.796;9.930;2023-04-23T11:13:33;1.05;;;0.40;;
36205;SDS011;22242;48.796;9.930;2023-04-23T11:18:59;0.50;;;0.50;;
36205;SDS011;22242;48.796;9.930;2023-04-23T11:24:23;0.50;;;0.50;;
36205;SDS011;22242;48.796;9.930;2023-04-23T11:26:52;4.15;;;0.60;;
36205;SDS011;22242;48.796;9.930;2023-04-23T11:29:20;1.65;;;0.52;;
36205;SDS011;22242;48.796;9.930;2023-04-23T11:31:49;0.60;;;0.60;;
36205;SDS011;22242;48.796;9.930;2023-04-23T11:34:18;0.75;;;0.65;;
36205;SDS011;22242;48.796;9.930;2023-04-23T11:36:46;1.00;;;0.90;;
36205;SDS011;22242;48.796;9.930;2023-04-23T11:39:14;0.65;;;0.52;;
36205;SDS011;22242;48.796;9.930;2023-04-23T11:41:43;1.13;;;0.80;;
36205;SDS011;22242;48.796;9.930;2023-04-23T11:44:11;1.15;;;0.70;;
36205;SDS011;22242;48.796;9.930;2023-04-23T11:46:38;0.70;;;0.70;;
36205;SDS011;22242;48.796;9.930;2023-04-23T11:49:05;1.02;;;0.68;;
36205;SDS011;22242;48.796;9.930;2023-04-23T11:51:37;0.50;;;0.50;;
36205;SDS011;22242;48.796;9.930;2023-04-23T11:54:07;0.98;;;0.75;;
36205;SDS011;22242;48.796;9.930;2023-04-23T11:56:35;2.88;;;0.80;;
36205;SDS011;22242;48.796;9.930;2023-04-23T11:59:03;1.00;;;0.52;;
36205;SDS011;22242;48.796;9.930;2023-04-23T12:01:43;1.85;;;0.60;;
36205;SDS011;22242;48.796;9.930;2023-04-23T12:04:11;1.13;;;0.75;;
36205;SDS011;22242;48.796;9.930;2023-04-23T12:06:41;0.70;;;0.70;;
36205;SDS011;22242;48.796;9.930;2023-04-23T12:09:10;2.45;;;0.82;;
36205;SDS011;22242;48.796;9.930;2023-04-23T12:11:38;0.93;;;0.70;;
36205;SDS011;22242;48.796;9.930;2023-04-23T12:14:06;3.47;;;0.70;;
36205;SDS011;22242;48.796;9.930;2023-04-23T12:16:34;0.68;;;0.55;;
36205;SDS011;22242;48.796;9.930;2023-04-23T12:19:03;0.60;;;0.60;;
36205;SDS011;22242;48.796;9.930;2023-04-23T12:21:32;2.72;;;0.80;;
36205;SDS011;22242;48.796;9.930;2023-04-23T12:24:01;1.05;;;0.60;;
36205;SDS011;22242;48.796;9.930;2023-04-23T12:26:29;1.65;;;0.60;;
36205;SDS011;22242;48.796;9.930;2023-04-23T12:28:57;0.77;;;0.70;;
36205;SDS011;22242;48.796;9.930;2023-04-23T12:31:25;1.27;;;0.50;;
36205;SDS011;22242;48.796;9.930;2023-04-23T12:33:57;0.80;;;0.80;;
36205;SDS011;22242;48.796;9.930;2023-04-23T12:36:27;0.95;;;0.63;;
36205;SDS011;22242;48.796;9.930;2023-04-23T12:41:49;1.37;;;0.70;;
36205;SDS011;22242;48.796;9.930;2023-04-23T12:44:17;1.00;;;0.73;;
36205;SDS011;22242;48.796;9.930;2023-04-23T12:46:48;3.28;;;0.80;;
36205;SDS011;22242;48.796;9.930;2023-04-23T12:49:16;1.15;;;0.65;;
36205;SDS011;22242;48.796;9.930;2023-04-23T12:51:43;1.45;;;0.70;;
36205;SDS011;22242;48.796;9.930;2023-04-23T12:54:10;1.13;;;0.70;;
36205;SDS011;22242;48.796;9.930;2023-04-23T12:56:39;1.10;;;0.70;;
36205;SDS011;22242;48.796;9.930;2023-04-23T12:59:06;0.68;;;0.50;;
36205;SDS011;22242;48.796;9.930;2023-04-23T13:01:33;0.52;;;0.52;;
36205;SDS011;22242;48.796;9.930;2023-04-23T13:04:00;1.05;;;0.50;;
36205;SDS011;22242;48.796;9.930;2023-04-23T13:06:27;1.48;;;0.57;;
36205;SDS011;22242;48.796;9.930;2023-04-23T13:08:54;1.20;;;0.85;;
36205;SDS011;22242;48.796;9.930;2023-04-23T13:11:21;0.93;;;0.60;;
36205;SDS011;22242;48.796;9.930;2023-04-23T13:13:50;0.80;;;0.52;;
36205;SDS011;22242;48.796;9.930;2023-04-23T13:16:17;2.28;;;0.45;;
36205;SDS011;22242;48.796;9.930;2023-04-23T13:18:44;1.13;;;0.80;;
36205;SDS011;22242;48.796;9.930;2023-04-23T13:21:11;0.65;;;0.65;;
36205;SDS011;22242;48.796;9.930;2023-04-23T13:23:38;0.80;;;0.52;;
36205;SDS011;22242;48.796;9.930;2023-04-23T13:26:05;2.55;;;0.70;;
36205;SDS011;22242;48.796;9.930;2023-04-23T13:28:33;1.30;;;0.60;;
36205;SDS011;22242;48.796;9.930;2023-04-23T13:31:02;0.90;;;0.65;;
36205;SDS011;22242;48.796;9.930;2023-04-23T13:33:29;2.05;;;0.75;;
36205;SDS011;22242;48.796;9.930;2023-04-23T13:35:56;0.65;;;0.63;;
36205;SDS011;22242;48.796;9.930;2023-04-23T13:38:23;0.75;;;0.68;;
36205;SDS011;22242;48.796;9.930;2023-04-23T13:40:50;0.95;;;0.55;;
36205;SDS011;22242;48.796;9.930;2023-04-23T13:43:17;1.58;;;0.60;;
36205;SDS011;22242;48.796;9.930;2023-04-23T13:45:45;1.25;;;0.63;;
36205;SDS011;22242;48.796;9.930;2023-04-23T13:48:14;0.80;;;0.50;;
36205;SDS011;22242;48.796;9.930;2023-04-23T13:50:41;0.70;;;0.43;;
36205;SDS011;22242;48.796;9.930;2023-04-23T13:53:09;1.25;;;0.60;;
36205;SDS011;22242;48.796;9.930;2023-04-23T13:55:36;1.38;;;0.60;;
36205;SDS011;22242;48.796;9.930;2023-04-23T13:58:03;0.43;;;0.43;;
36205;SDS011;22242;48.796;9.930;2023-04-23T14:00:31;0.95;;;0.80;;
36205;SDS011;22242;48.796;9.930;2023-04-23T14:02:59;0.60;;;0.55;;
36205;SDS011;22242;48.796;9.930;2023-04-23T14:05:27;0.98;;;0.63;;
36205;SDS011;22242;48.796;9.930;2023-04-23T14:07:55;0.80;;;0.80;;
36205;SDS011;22242;48.796;9.930;2023-04-23T14:10:22;0.55;;;0.50;;
36205;SDS011;22242;48.796;9.930;2023-04-23T14:12:49;0.90;;;0.70;;
36205;SDS011;22242;48.796;9.930;2023-04-23T14:15:17;1.02;;;0.80;;
36205;SDS011;22242;48.796;9.930;2023-04-23T14:17:44;1.85;;;0.70;;
36205;SDS011;22242;48.796;9.930;2023-04-23T14:20:11;1.70;;;0.82;;
36205;SDS011;22242;48.796;9.930;2023-04-23T14:22:41;1.60;;;0.60;;
36205;SDS011;22242;48.796;9.930;2023-04-23T14:25:09;1.70;;;0.47;;
36205;SDS011;22242;48.796;9.930;2023-04-23T14:27:40;1.33;;;0.68;;
36205;SDS011;22242;48.796;9.930;2023-04-23T14:30:15;2.90;;;0.90;;
36205;SDS011;22242;48.796;9.930;2023-04-23T14:32:44;1.88;;;0.82;;
36205;SDS011;22242;48.796;9.930;2023-04-23T14:35:12;0.95;;;0.50;;
36205;SDS011;22242;48.796;9.930;2023-04-23T14:37:41;1.13;;;0.77;;
36205;SDS011;22242;48.796;9.930;2023-04-23T14:40:10;1.40;;;0.80;;
36205;SDS011;22242;48.796;9.930;2023-04-23T14:42:43;2.28;;;0.40;;
36205;SDS011;22242;48.796;9.930;2023-04-23T14:45:10;1.58;;;0.60;;
36205;SDS011;22242;48.796;9.930;2023-04-23T14:47:39;1.05;;;0.50;;
36205;SDS011;22242;48.796;9.930;2023-04-23T14:50:12;1.13;;;0.80;;
36205;SDS011;22242;48.796;9.930;2023-04-23T14:52:42;1.27;;;0.90;;
36205;SDS011;22242;48.796;9.930;2023-04-23T14:55:13;1.27;;;0.60;;
36205;SDS011;22242;48.796;9.930;2023-04-23T14:57:40;1.85;;;0.77;;
36205;SDS011;22242;48.796;9.930;2023-04-23T15:00:08;2.40;;;0.75;;
36205;SDS011;22242;48.796;9.930;2023-04-23T15:02:37;1.55;;;1.30;;
36205;SDS011;22242;48.796;9.930;2023-04-23T15:05:05;1.70;;;0.98;;
36205;SDS011;22242;48.796;9.930;2023-04-23T15:07:33;0.50;;;0.50;;
36205;SDS011;22242;48.796;9.930;2023-04-23T15:10:02;1.25;;;0.73;;
36205;SDS011;22242;48.796;9.930;2023-04-23T15:12:36;0.95;;;0.60;;